This is the latest recevied weather packets stored in our database for station/object CA3EVY-3. If no packets are shown the sender has not sent any weather packets the latest 10 day(s).
| Time | Temp. | Humidity | Pressure | Rain* | Wind** | Luminosity | Snow |
|---|---|---|---|---|---|---|---|
| 1778022904 | 16.11° C | 55% | 916.7 hPa | - | - | - | - |
| 1778022003 | 16.67° C | 53% | 916.4 hPa | - | - | - | - |
| 1778021105 | 16.67° C | 53% | 916.2 hPa | - | - | - | - |
| 1778020204 | 17.22° C | 51% | 915.9 hPa | - | - | - | - |
| 1778019304 | 17.22° C | 51% | 916.1 hPa | - | - | - | - |
| 1778018404 | 17.78° C | 46% | 915.9 hPa | - | - | - | - |
| 1778017503 | 17.78° C | 46% | 915.6 hPa | - | - | - | - |
| 1778016603 | 18.33° C | 43% | 915.2 hPa | - | - | - | - |
| 1778015703 | 18.33° C | 43% | 915.2 hPa | - | - | - | - |
| 1778014805 | 18.89° C | 41% | 915.3 hPa | - | - | - | - |
| 1778013905 | 18.89° C | 41% | 915.3 hPa | - | - | - | - |
| 1778013003 | 19.44° C | 40% | 915.3 hPa | - | - | - | - |
| 1778012104 | 19.44° C | 40% | 915.1 hPa | - | - | - | - |
| 1778011204 | 19.44° C | 39% | 915.2 hPa | - | - | - | - |
| 1778010303 | 19.44° C | 39% | 915.2 hPa | - | - | - | - |
| 1778009403 | 20° C | 36% | 915.1 hPa | - | - | - | - |
| 1778008504 | 20° C | 36% | 915.1 hPa | - | - | - | - |
| 1778007603 | 20.56° C | 35% | 915.1 hPa | - | - | - | - |
| 1778006704 | 20.56° C | 35% | 915 hPa | - | - | - | - |
| 1778005803 | 20.56° C | 35% | 914.9 hPa | - | - | - | - |
| 1778004904 | 20.56° C | 35% | 914.8 hPa | - | - | - | - |
| 1778004004 | 20.56° C | 36% | 914.9 hPa | - | - | - | - |
| 1778003104 | 20° C | 36% | 914.9 hPa | - | - | - | - |
| 1778002203 | 20° C | 37% | 914.6 hPa | - | - | - | - |
| 1778001304 | 20° C | 37% | 914.8 hPa | - | - | - | - |
* Rain since midnight (hover to see other rain measurements)
** Current wind speed in m/s (hover to see current wind gust speed)